createdAt,value
2023-05-07T00:00:27.639Z,14.61
2023-05-07T00:03:30.657Z,14.62
2023-05-07T00:06:34.540Z,14.54
2023-05-07T00:09:38.887Z,14.56
2023-05-07T00:12:42.750Z,14.63
2023-05-07T00:15:45.539Z,14.65
2023-05-07T00:18:48.188Z,14.69
2023-05-07T00:21:50.903Z,14.68
2023-05-07T00:24:55.523Z,14.63
2023-05-07T00:27:58.533Z,14.64
2023-05-07T00:31:01.276Z,14.65
2023-05-07T00:34:03.998Z,14.68
2023-05-07T00:37:08.322Z,14.60
2023-05-07T00:40:13.100Z,14.56
2023-05-07T00:43:16.109Z,14.57
2023-05-07T00:46:19.094Z,14.48
2023-05-07T00:49:22.287Z,14.43
2023-05-07T00:52:28.362Z,14.45
2023-05-07T00:55:32.682Z,14.45
2023-05-07T00:58:35.529Z,14.42
2023-05-07T01:01:38.574Z,14.39
2023-05-07T01:04:41.520Z,14.35
2023-05-07T01:07:45.406Z,14.34
2023-05-07T01:10:49.543Z,14.33
2023-05-07T01:13:53.284Z,14.26
2023-05-07T01:16:56.166Z,14.25
2023-05-07T01:19:58.941Z,14.22
2023-05-07T01:23:05.122Z,14.19
2023-05-07T01:26:07.788Z,14.15
2023-05-07T01:29:10.865Z,14.14
2023-05-07T01:32:15.721Z,14.13
2023-05-07T01:35:21.777Z,14.13
2023-05-07T01:38:26.142Z,14.12
2023-05-07T01:41:29.153Z,14.05
2023-05-07T01:44:32.072Z,14.05
2023-05-07T01:47:35.599Z,14.04
2023-05-07T01:50:39.255Z,13.95
2023-05-07T01:53:44.865Z,13.95
2023-05-07T01:56:49.085Z,13.96
2023-05-07T01:59:51.830Z,14.02
2023-05-07T02:02:54.827Z,14.04
2023-05-07T02:05:57.675Z,14.10
2023-05-07T02:09:01.723Z,14.12
2023-05-07T02:12:04.883Z,14.13
2023-05-07T02:15:08.616Z,14.11
2023-05-07T02:18:11.311Z,14.09
2023-05-07T02:21:13.986Z,14.05
2023-05-07T02:24:18.084Z,14.04
2023-05-07T02:27:22.850Z,14.03
2023-05-07T02:30:26.174Z,14.06
2023-05-07T02:33:28.876Z,14.00
2023-05-07T02:36:31.634Z,13.94
2023-05-07T02:39:35.945Z,13.94
2023-05-07T02:42:38.661Z,13.93
2023-05-07T02:45:41.417Z,13.90
2023-05-07T02:48:44.083Z,13.86
2023-05-07T02:51:46.743Z,13.81
2023-05-07T02:54:50.808Z,13.73
2023-05-07T02:57:53.492Z,13.66
2023-05-07T03:00:56.742Z,13.62
2023-05-07T03:03:59.628Z,13.60
2023-05-07T03:07:02.316Z,13.53
2023-05-07T03:10:07.297Z,13.53
2023-05-07T03:13:10.228Z,13.44
2023-05-07T03:16:13.267Z,13.44
2023-05-07T03:19:16.084Z,13.42
2023-05-07T03:22:18.841Z,13.36
2023-05-07T03:25:23.105Z,13.32
2023-05-07T03:28:25.893Z,13.27
2023-05-07T03:31:28.756Z,13.22
2023-05-07T03:34:31.499Z,13.16
2023-05-07T03:37:34.193Z,13.15
2023-05-07T03:40:38.300Z,13.11
2023-05-07T03:43:41.054Z,13.09
2023-05-07T03:46:43.945Z,13.07
2023-05-07T03:49:46.655Z,13.08
2023-05-07T03:52:51.582Z,13.09
2023-05-07T03:55:55.765Z,13.09
2023-05-07T03:58:58.614Z,13.05
2023-05-07T04:02:03.701Z,13.02
2023-05-07T04:05:08.899Z,13.00
2023-05-07T04:08:11.622Z,13.02
2023-05-07T04:11:15.722Z,12.96
2023-05-07T04:14:18.425Z,12.98
2023-05-07T04:17:21.130Z,12.95
2023-05-07T04:20:23.914Z,12.96
2023-05-07T04:23:26.631Z,12.95
2023-05-07T04:26:31.127Z,12.92
2023-05-07T04:29:33.874Z,12.97
2023-05-07T04:32:37.505Z,13.04
2023-05-07T04:35:40.281Z,13.06
2023-05-07T04:38:43.373Z,13.11
2023-05-07T04:41:47.501Z,13.12
2023-05-07T04:44:54.956Z,13.13
2023-05-07T04:47:57.801Z,13.17
2023-05-07T04:51:00.697Z,13.25
2023-05-07T04:54:03.510Z,13.23
2023-05-07T04:57:07.768Z,13.20
2023-05-07T05:00:11.370Z,13.21
2023-05-07T05:03:14.539Z,13.27
2023-05-07T05:06:17.380Z,13.32
2023-05-07T05:09:20.141Z,13.34
2023-05-07T05:12:24.207Z,13.38
2023-05-07T05:15:26.850Z,13.42
2023-05-07T05:18:29.544Z,13.46
2023-05-07T05:21:34.183Z,13.50
2023-05-07T05:24:36.858Z,13.53
2023-05-07T05:27:44.426Z,13.53
2023-05-07T05:30:49.953Z,13.60
2023-05-07T05:33:52.595Z,13.72
2023-05-07T05:36:55.357Z,13.83
2023-05-07T05:39:58.013Z,13.96
2023-05-07T05:43:02.229Z,14.09
2023-05-07T05:46:05.420Z,14.23
2023-05-07T05:49:08.306Z,14.37
2023-05-07T05:52:11.683Z,14.52
2023-05-07T05:55:14.432Z,14.60
2023-05-07T05:58:18.500Z,14.72
2023-05-07T06:01:21.416Z,14.86
2023-05-07T06:04:24.129Z,15.01
2023-05-07T06:07:27.135Z,15.13
2023-05-07T06:10:31.166Z,15.23
2023-05-07T06:13:35.190Z,15.32
2023-05-07T06:16:39.107Z,15.37
2023-05-07T06:19:41.876Z,15.51
2023-05-07T06:22:44.541Z,15.56
2023-05-07T06:25:50.912Z,15.70
2023-05-07T06:28:55.201Z,15.91
2023-05-07T06:31:58.117Z,16.10
2023-05-07T06:35:00.952Z,16.23
2023-05-07T06:38:03.838Z,16.37
2023-05-07T06:41:08.029Z,16.51
2023-05-07T06:44:12.149Z,16.71
2023-05-07T06:47:16.334Z,16.94
2023-05-07T06:50:19.347Z,17.23
2023-05-07T06:53:22.057Z,17.51
2023-05-07T06:56:25.433Z,17.69
2023-05-07T06:59:29.637Z,18.00
2023-05-07T07:02:32.569Z,18.23
2023-05-07T07:05:35.582Z,18.54
2023-05-07T07:08:39.755Z,18.77
2023-05-07T07:11:42.709Z,18.81
2023-05-07T07:14:46.897Z,18.97
2023-05-07T07:17:50.742Z,19.09
2023-05-07T07:20:53.491Z,19.15
2023-05-07T07:23:56.376Z,19.06
2023-05-07T07:26:59.062Z,19.09
2023-05-07T07:30:03.223Z,19.23
2023-05-07T07:33:06.390Z,19.43
2023-05-07T07:36:09.596Z,19.74
2023-05-07T07:39:12.299Z,19.93
2023-05-07T07:42:15.180Z,20.00
2023-05-07T07:45:19.492Z,19.94
2023-05-07T07:48:22.346Z,19.83
2023-05-07T07:51:25.064Z,19.74
2023-05-07T07:54:27.796Z,19.48
2023-05-07T07:57:30.589Z,19.60
2023-05-07T08:00:34.730Z,19.70
2023-05-07T08:03:40.101Z,19.71
2023-05-07T08:06:43.176Z,19.58
2023-05-07T08:09:45.967Z,19.56
2023-05-07T08:12:49.352Z,19.49
2023-05-07T08:15:53.467Z,19.54
2023-05-07T08:18:56.201Z,19.59
2023-05-07T08:22:01.227Z,19.74
2023-05-07T08:25:04.290Z,19.85
2023-05-07T08:28:09.678Z,20.02
2023-05-07T08:31:14.100Z,20.07
2023-05-07T08:34:17.001Z,20.09
2023-05-07T08:37:19.805Z,20.25
2023-05-07T08:40:26.903Z,20.47
2023-05-07T08:43:29.911Z,20.71
2023-05-07T08:46:34.446Z,21.01
2023-05-07T08:49:37.271Z,21.22
2023-05-07T08:52:41.556Z,21.50
2023-05-07T08:55:44.345Z,21.84
2023-05-07T08:58:47.118Z,22.11
2023-05-07T09:01:51.450Z,22.40
2023-05-07T09:04:54.513Z,22.58
2023-05-07T09:07:58.415Z,22.83
2023-05-07T09:11:01.399Z,22.94
2023-05-07T09:14:04.883Z,23.08
2023-05-07T09:17:09.107Z,23.29
2023-05-07T09:20:12.250Z,23.56
2023-05-07T09:23:16.122Z,23.57
2023-05-07T09:26:18.937Z,23.64
2023-05-07T09:29:21.770Z,23.69
2023-05-07T09:32:28.286Z,23.85
2023-05-07T09:35:32.240Z,23.91
2023-05-07T09:38:35.871Z,23.79
2023-05-07T09:41:46.194Z,23.92
2023-05-07T09:44:49.253Z,24.00
2023-05-07T09:47:57.026Z,24.16
2023-05-07T09:51:04.615Z,24.26
2023-05-07T09:54:09.804Z,24.24
2023-05-07T09:57:13.733Z,24.33
2023-05-07T10:00:17.385Z,24.46
2023-05-07T10:03:22.175Z,24.59
2023-05-07T10:06:27.332Z,24.78
2023-05-07T10:09:31.244Z,24.86
2023-05-07T10:12:39.763Z,24.92
2023-05-07T10:15:43.297Z,24.97
2023-05-07T10:18:49.448Z,25.11
2023-05-07T10:21:57.797Z,25.03
2023-05-07T10:25:05.403Z,25.04
2023-05-07T10:28:13.132Z,25.16
2023-05-07T10:31:33.118Z,25.04
2023-05-07T10:34:41.074Z,24.72
2023-05-07T10:37:44.111Z,24.40
2023-05-07T10:40:47.798Z,23.92
2023-05-07T10:43:50.965Z,23.63
2023-05-07T10:47:09.774Z,23.54
2023-05-07T10:50:26.492Z,23.49
2023-05-07T10:53:29.774Z,23.51
2023-05-07T10:56:32.745Z,23.45
2023-05-07T10:59:45.798Z,23.37
2023-05-07T11:03:09.669Z,23.38
2023-05-07T11:06:15.712Z,23.34
2023-05-07T11:09:18.601Z,23.23
2023-05-07T11:12:49.221Z,23.09
2023-05-07T11:15:53.090Z,22.98
2023-05-07T11:18:57.963Z,22.92
2023-05-07T11:22:02.114Z,22.84
2023-05-07T11:25:06.801Z,22.77
2023-05-07T11:28:11.404Z,22.69
2023-05-07T11:31:14.314Z,22.65
2023-05-07T11:34:22.618Z,22.61
2023-05-07T11:37:30.554Z,22.60
2023-05-07T11:40:33.339Z,22.56
2023-05-07T11:43:37.601Z,22.56
2023-05-07T11:46:45.555Z,22.53
2023-05-07T11:49:49.641Z,22.45
2023-05-07T11:52:54.183Z,22.37
2023-05-07T11:55:58.316Z,22.28
2023-05-07T11:59:01.051Z,22.24
2023-05-07T12:02:04.050Z,22.19
2023-05-07T12:05:07.253Z,22.05
2023-05-07T12:08:16.614Z,21.95
2023-05-07T12:11:26.906Z,21.90
2023-05-07T12:14:30.135Z,21.81
2023-05-07T12:17:33.074Z,21.75
2023-05-07T12:20:36.346Z,21.68
2023-05-07T12:23:40.904Z,21.63
2023-05-07T12:26:43.687Z,21.67
2023-05-07T12:29:47.364Z,21.65
2023-05-07T12:32:54.729Z,21.59
2023-05-07T12:35:58.313Z,21.53
2023-05-07T12:39:03.044Z,21.45
2023-05-07T12:42:05.841Z,21.29
2023-05-07T12:45:12.472Z,21.04
2023-05-07T12:48:15.516Z,20.83
2023-05-07T12:51:20.631Z,20.55
2023-05-07T12:54:42.614Z,20.38
2023-05-07T12:57:48.014Z,20.20
2023-05-07T13:00:52.147Z,19.91
2023-05-07T13:03:54.993Z,19.74
2023-05-07T13:06:57.791Z,19.38
2023-05-07T13:10:01.896Z,19.28
2023-05-07T13:13:05.445Z,19.18
2023-05-07T13:16:10.742Z,19.10
2023-05-07T13:19:13.546Z,19.03
2023-05-07T13:22:16.299Z,18.93
2023-05-07T13:25:20.352Z,18.88
2023-05-07T13:28:23.453Z,18.74
2023-05-07T13:31:26.426Z,18.46
2023-05-07T13:34:30.548Z,18.27
2023-05-07T13:37:33.273Z,18.01
2023-05-07T13:40:37.439Z,17.87
2023-05-07T13:43:41.011Z,17.80
2023-05-07T13:46:43.817Z,17.77
2023-05-07T13:49:46.511Z,17.55
2023-05-07T13:52:51.859Z,17.46
2023-05-07T13:55:56.037Z,17.47
2023-05-07T13:59:00.787Z,17.48
2023-05-07T14:02:03.918Z,17.50
2023-05-07T14:05:07.493Z,17.55
2023-05-07T14:08:10.367Z,17.67
2023-05-07T14:11:14.378Z,17.77
2023-05-07T14:14:17.174Z,17.78
2023-05-07T14:17:21.063Z,17.80
2023-05-07T14:20:23.998Z,17.85
2023-05-07T14:23:28.153Z,17.85
2023-05-07T14:26:32.309Z,17.88
2023-05-07T14:29:36.428Z,17.78
2023-05-07T14:32:39.349Z,17.80
2023-05-07T14:35:42.207Z,17.82
2023-05-07T14:38:45.109Z,17.79
2023-05-07T14:41:49.299Z,17.79
2023-05-07T14:44:52.058Z,17.79
2023-05-07T14:47:54.939Z,17.82
2023-05-07T14:50:58.024Z,17.84
2023-05-07T14:54:01.325Z,17.80
2023-05-07T14:57:07.118Z,17.69
2023-05-07T15:00:12.300Z,17.63
2023-05-07T15:03:15.409Z,17.60
2023-05-07T15:06:18.223Z,17.55
2023-05-07T15:09:21.077Z,17.60
2023-05-07T15:12:25.133Z,17.75
2023-05-07T15:15:27.845Z,17.78
2023-05-07T15:18:30.614Z,17.78
2023-05-07T15:21:35.539Z,17.76
2023-05-07T15:24:38.521Z,17.74
2023-05-07T15:27:42.665Z,17.75
2023-05-07T15:30:45.464Z,17.74
2023-05-07T15:33:48.529Z,17.80
2023-05-07T15:36:51.191Z,17.91
2023-05-07T15:39:53.879Z,17.95
2023-05-07T15:42:58.328Z,17.98
2023-05-07T15:46:01.824Z,17.99
2023-05-07T15:49:05.449Z,18.00
2023-05-07T15:52:08.290Z,18.03
2023-05-07T15:55:11.571Z,18.10
2023-05-07T15:58:15.904Z,18.09
2023-05-07T16:01:18.771Z,18.07
2023-05-07T16:04:21.607Z,17.99
2023-05-07T16:07:24.684Z,17.97
2023-05-07T16:10:27.789Z,17.95
2023-05-07T16:13:31.808Z,17.87
2023-05-07T16:16:34.738Z,17.88
2023-05-07T16:19:37.490Z,17.87
2023-05-07T16:22:40.259Z,17.81
2023-05-07T16:25:43.117Z,17.78
2023-05-07T16:28:47.294Z,17.76
2023-05-07T16:31:50.685Z,17.79
2023-05-07T16:34:53.427Z,17.75
2023-05-07T16:37:56.319Z,17.75
2023-05-07T16:40:58.973Z,17.77
2023-05-07T16:44:03.940Z,17.79
2023-05-07T16:47:06.656Z,17.79
2023-05-07T16:50:10.304Z,17.75
2023-05-07T16:53:13.074Z,17.74
2023-05-07T16:56:17.132Z,17.74
2023-05-07T16:59:21.256Z,17.75
2023-05-07T17:02:24.052Z,17.74
2023-05-07T17:05:27.441Z,17.75
2023-05-07T17:08:30.277Z,17.76
2023-05-07T17:11:34.093Z,17.77
2023-05-07T17:14:38.365Z,17.80
2023-05-07T17:17:41.841Z,17.81
2023-05-07T17:20:44.556Z,17.86
2023-05-07T17:23:47.223Z,17.86
2023-05-07T17:26:50.175Z,17.82
2023-05-07T17:29:55.568Z,17.78
2023-05-07T17:33:06.174Z,17.74
2023-05-07T17:36:12.246Z,17.69
2023-05-07T17:39:14.983Z,17.66
2023-05-07T17:42:17.752Z,17.68
2023-05-07T17:45:22.039Z,17.65
2023-05-07T17:48:25.225Z,17.61
2023-05-07T17:51:36.106Z,17.46
2023-05-07T17:54:41.881Z,17.45
2023-05-07T17:57:44.627Z,17.41
2023-05-07T18:00:49.067Z,17.39
2023-05-07T18:03:52.083Z,17.37
2023-05-07T18:06:55.051Z,17.37
2023-05-07T18:09:59.646Z,17.38
2023-05-07T18:13:02.487Z,17.31
2023-05-07T18:16:07.496Z,17.24
2023-05-07T18:19:10.419Z,17.23
2023-05-07T18:22:13.115Z,17.23
2023-05-07T18:25:15.805Z,17.21
2023-05-07T18:28:18.598Z,17.17
2023-05-07T18:31:22.747Z,17.12
2023-05-07T18:34:25.540Z,17.10
2023-05-07T18:37:28.220Z,16.99
2023-05-07T18:40:31.028Z,16.93
2023-05-07T18:43:34.502Z,16.88
2023-05-07T18:46:38.659Z,16.81
2023-05-07T18:49:41.372Z,16.78
2023-05-07T18:52:44.165Z,16.71
2023-05-07T18:55:50.789Z,16.73
2023-05-07T18:58:53.446Z,16.74
2023-05-07T19:01:57.553Z,16.69
2023-05-07T19:05:00.269Z,16.67
2023-05-07T19:08:02.928Z,16.66
2023-05-07T19:11:05.654Z,16.62
2023-05-07T19:14:09.686Z,16.57
2023-05-07T19:17:15.976Z,16.53
2023-05-07T19:20:18.820Z,16.49
2023-05-07T19:23:21.575Z,16.44
2023-05-07T19:26:24.441Z,16.42
2023-05-07T19:29:27.234Z,16.42
2023-05-07T19:32:31.251Z,16.37
2023-05-07T19:35:35.242Z,16.36
2023-05-07T19:38:37.971Z,16.35
2023-05-07T19:41:41.920Z,16.31
2023-05-07T19:44:44.689Z,16.31
2023-05-07T19:47:49.946Z,16.30
2023-05-07T19:50:52.816Z,16.28
2023-05-07T19:53:55.562Z,16.26
2023-05-07T19:56:58.374Z,16.28
2023-05-07T20:00:01.061Z,16.29
2023-05-07T20:03:05.612Z,16.27
2023-05-07T20:06:08.383Z,16.24
2023-05-07T20:09:12.895Z,16.24
2023-05-07T20:12:15.765Z,16.25
2023-05-07T20:15:19.631Z,16.23
2023-05-07T20:18:23.846Z,16.21
2023-05-07T20:21:26.877Z,16.20
2023-05-07T20:24:29.803Z,16.20
2023-05-07T20:27:34.568Z,16.21
2023-05-07T20:30:37.350Z,16.19
2023-05-07T20:33:41.391Z,16.23
2023-05-07T20:36:45.291Z,16.21
2023-05-07T20:39:49.138Z,16.20
2023-05-07T20:42:52.749Z,16.16
2023-05-07T20:46:00.559Z,16.15
2023-05-07T20:49:04.917Z,16.15
2023-05-07T20:52:07.592Z,16.13
2023-05-07T20:55:10.990Z,16.17
2023-05-07T20:58:13.782Z,16.21
2023-05-07T21:01:16.610Z,16.24
2023-05-07T21:04:21.402Z,16.25
2023-05-07T21:07:24.237Z,16.28
2023-05-07T21:10:27.101Z,16.26
2023-05-07T21:13:29.848Z,16.16
2023-05-07T21:16:32.630Z,16.09
2023-05-07T21:19:36.730Z,16.07
2023-05-07T21:22:39.412Z,16.10
2023-05-07T21:25:42.434Z,16.08
2023-05-07T21:28:45.118Z,16.06
2023-05-07T21:31:47.981Z,16.06
2023-05-07T21:34:52.321Z,16.07
2023-05-07T21:37:55.123Z,16.09
2023-05-07T21:40:57.976Z,16.09
2023-05-07T21:44:00.777Z,16.08
2023-05-07T21:47:03.476Z,16.05
2023-05-07T21:50:08.509Z,16.06
2023-05-07T21:53:11.437Z,16.06
2023-05-07T21:56:14.153Z,16.09
2023-05-07T21:59:16.942Z,16.08
2023-05-07T22:02:19.684Z,16.06
2023-05-07T22:05:23.960Z,16.06
2023-05-07T22:08:26.670Z,16.03
2023-05-07T22:11:29.324Z,16.03
2023-05-07T22:14:32.161Z,16.06
2023-05-07T22:17:34.966Z,16.05
2023-05-07T22:20:39.088Z,16.05
2023-05-07T22:23:41.894Z,16.03
2023-05-07T22:26:45.109Z,16.03
2023-05-07T22:29:47.783Z,16.04
2023-05-07T22:32:50.481Z,16.07
2023-05-07T22:35:54.581Z,16.11
2023-05-07T22:38:57.235Z,16.10
2023-05-07T22:41:59.906Z,16.10
2023-05-07T22:45:02.735Z,16.09
2023-05-07T22:48:06.335Z,16.12
2023-05-07T22:51:15.023Z,16.13
2023-05-07T22:54:17.771Z,16.11
2023-05-07T22:57:20.478Z,16.13
2023-05-07T23:00:23.832Z,16.12
2023-05-07T23:03:26.833Z,16.08
2023-05-07T23:06:30.963Z,16.07
2023-05-07T23:09:33.967Z,16.06
2023-05-07T23:12:36.908Z,16.04
2023-05-07T23:15:39.890Z,16.05
2023-05-07T23:18:42.536Z,16.03
2023-05-07T23:21:46.586Z,16.06
2023-05-07T23:24:49.261Z,16.10
2023-05-07T23:27:51.956Z,16.10
2023-05-07T23:30:54.695Z,16.04
2023-05-07T23:33:57.536Z,16.00
2023-05-07T23:37:01.657Z,15.98
2023-05-07T23:40:05.062Z,15.89
2023-05-07T23:43:07.753Z,15.90
2023-05-07T23:46:10.473Z,15.93
2023-05-07T23:49:13.339Z,15.98
2023-05-07T23:52:17.560Z,16.01
2023-05-07T23:55:20.295Z,16.04
2023-05-07T23:58:23.162Z,16.10
